sensor_id;sensor_type;location;lat;lon;timestamp;temperature;humidity
20005;DHT22;68409;45.498;-73.582;2023-04-01T00:00:20;2.00;99.90
20005;DHT22;68409;45.498;-73.582;2023-04-01T00:02:46;2.00;99.90
20005;DHT22;68409;45.498;-73.582;2023-04-01T00:05:13;2.10;99.90
20005;DHT22;68409;45.498;-73.582;2023-04-01T00:07:40;2.10;99.90
20005;DHT22;68409;45.498;-73.582;2023-04-01T00:10:08;2.00;99.90
20005;DHT22;68409;45.498;-73.582;2023-04-01T00:12:35;2.10;99.90
20005;DHT22;68409;45.498;-73.582;2023-04-01T00:15:03;2.00;99.90
20005;DHT22;68409;45.498;-73.582;2023-04-01T00:17:29;2.00;99.90
20005;DHT22;68409;45.498;-73.582;2023-04-01T00:19:56;2.10;99.90
20005;DHT22;68409;45.498;-73.582;2023-04-01T00:22:24;2.10;99.90
20005;DHT22;68409;45.498;-73.582;2023-04-01T00:24:50;2.00;99.90
20005;DHT22;68409;45.498;-73.582;2023-04-01T00:27:17;2.20;99.90
20005;DHT22;68409;45.498;-73.582;2023-04-01T00:29:44;2.10;99.90
20005;DHT22;68409;45.498;-73.582;2023-04-01T00:32:11;2.10;99.90
20005;DHT22;68409;45.498;-73.582;2023-04-01T00:34:38;2.10;99.90
20005;DHT22;68409;45.498;-73.582;2023-04-01T00:37:06;2.00;99.90
20005;DHT22;68409;45.498;-73.582;2023-04-01T00:39:33;2.00;99.90
20005;DHT22;68409;45.498;-73.582;2023-04-01T00:42:01;1.80;99.90
20005;DHT22;68409;45.498;-73.582;2023-04-01T00:44:30;1.80;99.90
20005;DHT22;68409;45.498;-73.582;2023-04-01T00:46:59;1.80;99.90
20005;DHT22;68409;45.498;-73.582;2023-04-01T00:49:36;1.70;99.90
20005;DHT22;68409;45.498;-73.582;2023-04-01T00:52:05;1.70;99.90
20005;DHT22;68409;45.498;-73.582;2023-04-01T00:54:32;1.70;99.90
20005;DHT22;68409;45.498;-73.582;2023-04-01T00:57:07;1.70;99.90
20005;DHT22;68409;45.498;-73.582;2023-04-01T00:59:37;1.70;99.90
20005;DHT22;68409;45.498;-73.582;2023-04-01T01:02:08;1.70;99.90
20005;DHT22;68409;45.498;-73.582;2023-04-01T01:04:37;1.70;99.90
20005;DHT22;68409;45.498;-73.582;2023-04-01T01:12:48;1.70;99.90
20005;DHT22;68409;45.498;-73.582;2023-04-01T01:15:30;1.80;99.90
20005;DHT22;68409;45.498;-73.582;2023-04-01T01:18:19;1.80;99.90
20005;DHT22;68409;45.498;-73.582;2023-04-01T01:27:00;1.80;99.90
20005;DHT22;68409;45.498;-73.582;2023-04-01T01:35:44;1.90;99.90
20005;DHT22;68409;45.498;-73.582;2023-04-01T01:38:19;1.90;99.90
20005;DHT22;68409;45.498;-73.582;2023-04-01T01:40:50;1.80;99.90
20005;DHT22;68409;45.498;-73.582;2023-04-01T01:43:24;1.90;99.90
20005;DHT22;68409;45.498;-73.582;2023-04-01T01:45:57;1.90;99.90
20005;DHT22;68409;45.498;-73.582;2023-04-01T01:48:24;1.80;99.90
20005;DHT22;68409;45.498;-73.582;2023-04-01T01:50:52;1.80;99.90
20005;DHT22;68409;45.498;-73.582;2023-04-01T01:53:19;1.80;99.90
20005;DHT22;68409;45.498;-73.582;2023-04-01T01:55:46;1.90;99.90
20005;DHT22;68409;45.498;-73.582;2023-04-01T01:58:28;1.90;99.90
20005;DHT22;68409;45.498;-73.582;2023-04-01T02:01:01;2.00;99.90
20005;DHT22;68409;45.498;-73.582;2023-04-01T02:03:31;1.90;99.90
20005;DHT22;68409;45.498;-73.582;2023-04-01T02:06:01;1.90;99.90
20005;DHT22;68409;45.498;-73.582;2023-04-01T02:09:05;1.80;99.90
20005;DHT22;68409;45.498;-73.582;2023-04-01T02:11:45;1.90;99.90
20005;DHT22;68409;45.498;-73.582;2023-04-01T02:14:20;1.80;99.90
20005;DHT22;68409;45.498;-73.582;2023-04-01T02:19:27;1.80;99.90
20005;DHT22;68409;45.498;-73.582;2023-04-01T02:21:57;1.70;99.90
20005;DHT22;68409;45.498;-73.582;2023-04-01T02:24:26;1.70;99.90
20005;DHT22;68409;45.498;-73.582;2023-04-01T02:26:53;1.80;99.90
20005;DHT22;68409;45.498;-73.582;2023-04-01T02:29:21;1.80;99.90
20005;DHT22;68409;45.498;-73.582;2023-04-01T02:31:49;1.90;99.90
20005;DHT22;68409;45.498;-73.582;2023-04-01T02:34:16;1.90;99.90
20005;DHT22;68409;45.498;-73.582;2023-04-01T02:36:42;2.00;99.90
20005;DHT22;68409;45.498;-73.582;2023-04-01T02:39:09;2.10;99.90
20005;DHT22;68409;45.498;-73.582;2023-04-01T02:41:40;2.00;99.90
20005;DHT22;68409;45.498;-73.582;2023-04-01T02:44:06;1.90;99.90
20005;DHT22;68409;45.498;-73.582;2023-04-01T02:46:33;2.00;99.90
20005;DHT22;68409;45.498;-73.582;2023-04-01T02:48:59;1.90;99.90
20005;DHT22;68409;45.498;-73.582;2023-04-01T02:51:26;1.90;99.90
20005;DHT22;68409;45.498;-73.582;2023-04-01T02:53:52;2.00;99.90
20005;DHT22;68409;45.498;-73.582;2023-04-01T02:56:18;2.00;99.90
20005;DHT22;68409;45.498;-73.582;2023-04-01T02:58:46;1.90;99.90
20005;DHT22;68409;45.498;-73.582;2023-04-01T03:01:12;1.90;99.90
20005;DHT22;68409;45.498;-73.582;2023-04-01T03:03:38;1.90;99.90
20005;DHT22;68409;45.498;-73.582;2023-04-01T03:06:09;1.90;99.90
20005;DHT22;68409;45.498;-73.582;2023-04-01T03:08:36;1.90;99.90
20005;DHT22;68409;45.498;-73.582;2023-04-01T03:11:02;1.90;99.90
20005;DHT22;68409;45.498;-73.582;2023-04-01T03:13:28;2.00;99.90
20005;DHT22;68409;45.498;-73.582;2023-04-01T03:15:55;2.00;99.90
20005;DHT22;68409;45.498;-73.582;2023-04-01T03:18:21;2.00;99.90
20005;DHT22;68409;45.498;-73.582;2023-04-01T03:20:47;1.90;99.90
20005;DHT22;68409;45.498;-73.582;2023-04-01T03:23:14;1.80;99.90
20005;DHT22;68409;45.498;-73.582;2023-04-01T03:25:42;1.90;99.90
20005;DHT22;68409;45.498;-73.582;2023-04-01T03:28:08;1.90;99.90
20005;DHT22;68409;45.498;-73.582;2023-04-01T03:30:35;1.90;99.90
20005;DHT22;68409;45.498;-73.582;2023-04-01T03:33:02;1.90;99.90
20005;DHT22;68409;45.498;-73.582;2023-04-01T03:35:29;1.90;99.90
20005;DHT22;68409;45.498;-73.582;2023-04-01T03:37:55;1.90;99.90
20005;DHT22;68409;45.498;-73.582;2023-04-01T03:40:22;1.90;99.90
20005;DHT22;68409;45.498;-73.582;2023-04-01T03:42:49;1.90;99.90
20005;DHT22;68409;45.498;-73.582;2023-04-01T03:45:15;1.90;99.90
20005;DHT22;68409;45.498;-73.582;2023-04-01T03:47:42;1.90;99.90
20005;DHT22;68409;45.498;-73.582;2023-04-01T03:50:08;1.80;99.90
20005;DHT22;68409;45.498;-73.582;2023-04-01T03:52:35;1.80;99.90
20005;DHT22;68409;45.498;-73.582;2023-04-01T03:55:02;1.90;99.90
20005;DHT22;68409;45.498;-73.582;2023-04-01T03:57:33;1.80;99.90
20005;DHT22;68409;45.498;-73.582;2023-04-01T03:59:59;1.90;99.90
20005;DHT22;68409;45.498;-73.582;2023-04-01T04:02:25;1.90;99.90
20005;DHT22;68409;45.498;-73.582;2023-04-01T04:04:51;2.00;99.90
20005;DHT22;68409;45.498;-73.582;2023-04-01T04:07:17;2.00;99.90
20005;DHT22;68409;45.498;-73.582;2023-04-01T04:09:43;2.00;99.90
20005;DHT22;68409;45.498;-73.582;2023-04-01T04:12:10;2.20;99.90
20005;DHT22;68409;45.498;-73.582;2023-04-01T04:14:36;2.10;99.90
20005;DHT22;68409;45.498;-73.582;2023-04-01T04:17:02;2.10;99.90
20005;DHT22;68409;45.498;-73.582;2023-04-01T04:19:32;2.10;99.90
20005;DHT22;68409;45.498;-73.582;2023-04-01T04:22:01;2.20;99.90
20005;DHT22;68409;45.498;-73.582;2023-04-01T04:24:27;2.40;99.90
20005;DHT22;68409;45.498;-73.582;2023-04-01T04:26:54;2.30;99.90
20005;DHT22;68409;45.498;-73.582;2023-04-01T04:29:20;2.30;99.90
20005;DHT22;68409;45.498;-73.582;2023-04-01T04:31:48;2.40;99.90
20005;DHT22;68409;45.498;-73.582;2023-04-01T04:34:14;2.40;99.90
20005;DHT22;68409;45.498;-73.582;2023-04-01T04:36:40;2.50;99.90
20005;DHT22;68409;45.498;-73.582;2023-04-01T04:39:06;2.40;99.90
20005;DHT22;68409;45.498;-73.582;2023-04-01T04:41:33;2.30;99.90
20005;DHT22;68409;45.498;-73.582;2023-04-01T04:43:59;2.30;99.90
20005;DHT22;68409;45.498;-73.582;2023-04-01T04:46:25;2.40;99.90
20005;DHT22;68409;45.498;-73.582;2023-04-01T04:48:52;2.30;99.90
20005;DHT22;68409;45.498;-73.582;2023-04-01T04:51:19;2.20;99.90
20005;DHT22;68409;45.498;-73.582;2023-04-01T04:53:47;2.40;99.90
20005;DHT22;68409;45.498;-73.582;2023-04-01T04:56:16;2.40;99.90
20005;DHT22;68409;45.498;-73.582;2023-04-01T04:58:43;2.50;99.90
20005;DHT22;68409;45.498;-73.582;2023-04-01T05:01:10;2.40;99.90
20005;DHT22;68409;45.498;-73.582;2023-04-01T05:03:38;2.50;99.90
20005;DHT22;68409;45.498;-73.582;2023-04-01T05:06:05;2.50;99.90
20005;DHT22;68409;45.498;-73.582;2023-04-01T05:08:31;2.50;99.90
20005;DHT22;68409;45.498;-73.582;2023-04-01T05:10:58;2.50;99.90
20005;DHT22;68409;45.498;-73.582;2023-04-01T05:13:25;2.60;99.90
20005;DHT22;68409;45.498;-73.582;2023-04-01T05:15:51;2.60;99.90
20005;DHT22;68409;45.498;-73.582;2023-04-01T05:18:17;2.60;99.90
20005;DHT22;68409;45.498;-73.582;2023-04-01T05:20:51;2.50;99.90
20005;DHT22;68409;45.498;-73.582;2023-04-01T05:23:19;2.40;99.90
20005;DHT22;68409;45.498;-73.582;2023-04-01T05:25:49;2.50;99.90
20005;DHT22;68409;45.498;-73.582;2023-04-01T05:28:19;2.50;99.90
20005;DHT22;68409;45.498;-73.582;2023-04-01T05:30:45;2.40;99.90
20005;DHT22;68409;45.498;-73.582;2023-04-01T05:33:13;2.50;99.90
20005;DHT22;68409;45.498;-73.582;2023-04-01T05:35:40;2.40;99.90
20005;DHT22;68409;45.498;-73.582;2023-04-01T05:38:06;2.40;99.90
20005;DHT22;68409;45.498;-73.582;2023-04-01T05:40:32;2.40;99.90
20005;DHT22;68409;45.498;-73.582;2023-04-01T05:42:59;2.40;99.90
20005;DHT22;68409;45.498;-73.582;2023-04-01T05:45:26;2.40;99.90
20005;DHT22;68409;45.498;-73.582;2023-04-01T05:47:53;2.40;99.90
20005;DHT22;68409;45.498;-73.582;2023-04-01T05:50:19;2.40;99.90
20005;DHT22;68409;45.498;-73.582;2023-04-01T05:52:45;2.50;99.90
20005;DHT22;68409;45.498;-73.582;2023-04-01T05:55:12;2.60;99.90
20005;DHT22;68409;45.498;-73.582;2023-04-01T05:57:41;2.60;99.90
20005;DHT22;68409;45.498;-73.582;2023-04-01T06:00:07;2.50;99.90
20005;DHT22;68409;45.498;-73.582;2023-04-01T06:02:33;2.50;99.90
20005;DHT22;68409;45.498;-73.582;2023-04-01T06:05:21;2.40;99.90
20005;DHT22;68409;45.498;-73.582;2023-04-01T06:07:48;2.40;99.90
20005;DHT22;68409;45.498;-73.582;2023-04-01T06:10:20;2.40;99.90
20005;DHT22;68409;45.498;-73.582;2023-04-01T06:13:01;2.40;99.90
20005;DHT22;68409;45.498;-73.582;2023-04-01T06:16:01;2.30;99.90
20005;DHT22;68409;45.498;-73.582;2023-04-01T06:21:41;2.60;99.90
20005;DHT22;68409;45.498;-73.582;2023-04-01T06:30:27;2.60;99.90
20005;DHT22;68409;45.498;-73.582;2023-04-01T06:42:05;2.60;99.90
20005;DHT22;68409;45.498;-73.582;2023-04-01T06:47:52;2.70;99.90
20005;DHT22;68409;45.498;-73.582;2023-04-01T06:56:01;2.80;99.90
20005;DHT22;68409;45.498;-73.582;2023-04-01T06:58:48;2.80;99.90
20005;DHT22;68409;45.498;-73.582;2023-04-01T07:01:40;2.70;99.90
20005;DHT22;68409;45.498;-73.582;2023-04-01T07:09:38;2.80;99.90
20005;DHT22;68409;45.498;-73.582;2023-04-01T07:12:18;2.70;99.90
20005;DHT22;68409;45.498;-73.582;2023-04-01T07:14:48;2.70;99.90
20005;DHT22;68409;45.498;-73.582;2023-04-01T07:17:19;2.70;99.90
20005;DHT22;68409;45.498;-73.582;2023-04-01T07:20:11;2.70;99.90
20005;DHT22;68409;45.498;-73.582;2023-04-01T07:22:52;2.80;99.90
20005;DHT22;68409;45.498;-73.582;2023-04-01T07:25:34;2.90;99.90
20005;DHT22;68409;45.498;-73.582;2023-04-01T07:28:11;2.70;99.90
20005;DHT22;68409;45.498;-73.582;2023-04-01T07:41:32;2.70;99.90
20005;DHT22;68409;45.498;-73.582;2023-04-01T07:50:26;2.80;99.90
20005;DHT22;68409;45.498;-73.582;2023-04-01T07:56:15;2.80;99.90
20005;DHT22;68409;45.498;-73.582;2023-04-01T08:07:41;2.80;99.90
20005;DHT22;68409;45.498;-73.582;2023-04-01T08:10:36;2.80;99.90
20005;DHT22;68409;45.498;-73.582;2023-04-01T08:13:39;2.80;99.90
20005;DHT22;68409;45.498;-73.582;2023-04-01T08:19:43;2.80;99.90
20005;DHT22;68409;45.498;-73.582;2023-04-01T08:22:37;2.80;99.90
20005;DHT22;68409;45.498;-73.582;2023-04-01T08:25:06;2.80;99.90
20005;DHT22;68409;45.498;-73.582;2023-04-01T08:27:49;2.80;99.90
20005;DHT22;68409;45.498;-73.582;2023-04-01T08:30:25;2.90;99.90
20005;DHT22;68409;45.498;-73.582;2023-04-01T08:33:10;2.90;99.90
20005;DHT22;68409;45.498;-73.582;2023-04-01T08:35:44;2.70;99.90
20005;DHT22;68409;45.498;-73.582;2023-04-01T08:38:16;2.80;99.90
20005;DHT22;68409;45.498;-73.582;2023-04-01T08:57:10;2.70;99.90
20005;DHT22;68409;45.498;-73.582;2023-04-01T09:16:55;2.90;99.90
20005;DHT22;68409;45.498;-73.582;2023-04-01T09:19:33;3.00;99.90
20005;DHT22;68409;45.498;-73.582;2023-04-01T09:22:09;3.10;99.90
20005;DHT22;68409;45.498;-73.582;2023-04-01T09:27:55;3.10;99.90
20005;DHT22;68409;45.498;-73.582;2023-04-01T09:36:03;3.10;99.90
20005;DHT22;68409;45.498;-73.582;2023-04-01T09:38:57;3.00;99.90
20005;DHT22;68409;45.498;-73.582;2023-04-01T09:41:35;3.00;99.90
20005;DHT22;68409;45.498;-73.582;2023-04-01T09:44:37;2.90;99.90
20005;DHT22;68409;45.498;-73.582;2023-04-01T09:53:00;2.80;99.90
20005;DHT22;68409;45.498;-73.582;2023-04-01T10:10:03;2.60;99.90
20005;DHT22;68409;45.498;-73.582;2023-04-01T10:49:56;2.70;99.90
20005;DHT22;68409;45.498;-73.582;2023-04-01T11:09:34;2.80;99.90
20005;DHT22;68409;45.498;-73.582;2023-04-01T11:12:15;2.80;99.90
20005;DHT22;68409;45.498;-73.582;2023-04-01T11:20:56;2.80;99.90
20005;DHT22;68409;45.498;-73.582;2023-04-01T11:23:50;2.80;99.90
20005;DHT22;68409;45.498;-73.582;2023-04-01T11:32:12;2.90;99.90
20005;DHT22;68409;45.498;-73.582;2023-04-01T11:40:25;3.10;99.90
20005;DHT22;68409;45.498;-73.582;2023-04-01T11:54:03;2.90;99.90
20005;DHT22;68409;45.498;-73.582;2023-04-01T11:59:40;2.90;99.90
20005;DHT22;68409;45.498;-73.582;2023-04-01T12:02:18;2.90;99.90
20005;DHT22;68409;45.498;-73.582;2023-04-01T12:05:03;2.80;99.90
20005;DHT22;68409;45.498;-73.582;2023-04-01T12:08:04;3.00;99.90
20005;DHT22;68409;45.498;-73.582;2023-04-01T12:16:15;3.10;99.90
20005;DHT22;68409;45.498;-73.582;2023-04-01T12:22:06;3.10;99.90
20005;DHT22;68409;45.498;-73.582;2023-04-01T12:36:40;3.00;99.90
20005;DHT22;68409;45.498;-73.582;2023-04-01T12:44:48;3.20;99.90
20005;DHT22;68409;45.498;-73.582;2023-04-01T12:50:44;3.00;99.90
20005;DHT22;68409;45.498;-73.582;2023-04-01T12:53:25;3.00;99.90
20005;DHT22;68409;45.498;-73.582;2023-04-01T12:55:54;3.10;99.90
20005;DHT22;68409;45.498;-73.582;2023-04-01T12:58:52;3.00;99.90
20005;DHT22;68409;45.498;-73.582;2023-04-01T13:04:34;3.10;99.90
20005;DHT22;68409;45.498;-73.582;2023-04-01T13:10:31;3.20;99.90
20005;DHT22;68409;45.498;-73.582;2023-04-01T13:23:33;3.50;99.90
20005;DHT22;68409;45.498;-73.582;2023-04-01T13:40:14;3.50;99.90
20005;DHT22;68409;45.498;-73.582;2023-04-01T13:42:49;3.60;99.90
20005;DHT22;68409;45.498;-73.582;2023-04-01T13:48:02;3.60;99.90
20005;DHT22;68409;45.498;-73.582;2023-04-01T13:51:10;3.60;99.90
20005;DHT22;68409;45.498;-73.582;2023-04-01T13:53:50;3.60;99.90
20005;DHT22;68409;45.498;-73.582;2023-04-01T13:56:34;3.60;99.90
20005;DHT22;68409;45.498;-73.582;2023-04-01T13:59:07;3.60;99.90
20005;DHT22;68409;45.498;-73.582;2023-04-01T14:01:42;3.60;99.90
20005;DHT22;68409;45.498;-73.582;2023-04-01T14:18:58;3.80;99.90
20005;DHT22;68409;45.498;-73.582;2023-04-01T14:21:27;3.80;99.90
20005;DHT22;68409;45.498;-73.582;2023-04-01T14:29:35;3.80;99.90
20005;DHT22;68409;45.498;-73.582;2023-04-01T14:35:23;3.80;99.90
20005;DHT22;68409;45.498;-73.582;2023-04-01T14:40:54;3.90;99.90
20005;DHT22;68409;45.498;-73.582;2023-04-01T14:49:04;4.00;99.90
20005;DHT22;68409;45.498;-73.582;2023-04-01T14:51:36;4.00;99.90
20005;DHT22;68409;45.498;-73.582;2023-04-01T14:54:21;4.10;99.90
20005;DHT22;68409;45.498;-73.582;2023-04-01T14:57:16;4.10;99.90
20005;DHT22;68409;45.498;-73.582;2023-04-01T15:00:13;4.20;99.90
20005;DHT22;68409;45.498;-73.582;2023-04-01T15:02:43;4.20;99.90
20005;DHT22;68409;45.498;-73.582;2023-04-01T15:05:23;4.30;99.90
20005;DHT22;68409;45.498;-73.582;2023-04-01T15:13:10;4.30;99.90
20005;DHT22;68409;45.498;-73.582;2023-04-01T15:16:30;4.30;99.90
20005;DHT22;68409;45.498;-73.582;2023-04-01T15:21:27;4.30;99.90
20005;DHT22;68409;45.498;-73.582;2023-04-01T15:24:24;4.30;99.90
20005;DHT22;68409;45.498;-73.582;2023-04-01T15:26:59;4.40;99.90
20005;DHT22;68409;45.498;-73.582;2023-04-01T15:29:38;4.50;99.90
20005;DHT22;68409;45.498;-73.582;2023-04-01T15:32:24;4.60;99.90
20005;DHT22;68409;45.498;-73.582;2023-04-01T15:41:07;4.60;99.90
20005;DHT22;68409;45.498;-73.582;2023-04-01T15:43:49;4.60;99.90
20005;DHT22;68409;45.498;-73.582;2023-04-01T15:46:48;4.60;99.90
20005;DHT22;68409;45.498;-73.582;2023-04-01T15:50:35;4.70;99.90
20005;DHT22;68409;45.498;-73.582;2023-04-01T16:04:03;4.90;99.90
20005;DHT22;68409;45.498;-73.582;2023-04-01T16:17:34;5.40;99.90
20005;DHT22;68409;45.498;-73.582;2023-04-01T16:20:18;5.50;99.90
20005;DHT22;68409;45.498;-73.582;2023-04-01T16:28:21;5.60;99.90
20005;DHT22;68409;45.498;-73.582;2023-04-01T16:36:09;5.70;99.90
20005;DHT22;68409;45.498;-73.582;2023-04-01T16:41:36;5.70;99.90
20005;DHT22;68409;45.498;-73.582;2023-04-01T16:44:24;5.90;99.90
20005;DHT22;68409;45.498;-73.582;2023-04-01T16:46:59;6.10;99.90
20005;DHT22;68409;45.498;-73.582;2023-04-01T16:49:46;6.10;99.90
20005;DHT22;68409;45.498;-73.582;2023-04-01T16:52:16;6.20;99.90
20005;DHT22;68409;45.498;-73.582;2023-04-01T16:54:54;6.40;99.90
20005;DHT22;68409;45.498;-73.582;2023-04-01T16:57:46;6.70;99.90
20005;DHT22;68409;45.498;-73.582;2023-04-01T17:00:26;6.90;99.90
20005;DHT22;68409;45.498;-73.582;2023-04-01T17:03:11;7.10;99.90
20005;DHT22;68409;45.498;-73.582;2023-04-01T17:06:01;7.20;99.90
20005;DHT22;68409;45.498;-73.582;2023-04-01T17:31:03;8.40;99.90
20005;DHT22;68409;45.498;-73.582;2023-04-01T17:34:03;8.20;99.90
20005;DHT22;68409;45.498;-73.582;2023-04-01T17:37:02;8.40;99.90
20005;DHT22;68409;45.498;-73.582;2023-04-01T17:42:48;8.80;99.90
20005;DHT22;68409;45.498;-73.582;2023-04-01T18:26:40;8.90;99.90
20005;DHT22;68409;45.498;-73.582;2023-04-01T18:32:22;8.90;99.90
20005;DHT22;68409;45.498;-73.582;2023-04-01T18:36:02;9.10;99.90
20005;DHT22;68409;45.498;-73.582;2023-04-01T18:38:12;9.30;99.90
20005;DHT22;68409;45.498;-73.582;2023-04-01T18:41:35;9.50;99.90
20005;DHT22;68409;45.498;-73.582;2023-04-01T18:44:04;9.70;99.90
20005;DHT22;68409;45.498;-73.582;2023-04-01T18:52:31;9.60;99.90
20005;DHT22;68409;45.498;-73.582;2023-04-01T18:57:50;9.70;99.90
20005;DHT22;68409;45.498;-73.582;2023-04-01T19:00:39;9.80;99.90
20005;DHT22;68409;45.498;-73.582;2023-04-01T19:03:20;9.60;99.90
20005;DHT22;68409;45.498;-73.582;2023-04-01T19:05:50;10.00;99.90
20005;DHT22;68409;45.498;-73.582;2023-04-01T19:08:33;9.90;99.90
20005;DHT22;68409;45.498;-73.582;2023-04-01T19:19:21;10.60;99.90
20005;DHT22;68409;45.498;-73.582;2023-04-01T19:27:42;11.10;99.90
20005;DHT22;68409;45.498;-73.582;2023-04-01T19:36:10;11.10;99.90
20005;DHT22;68409;45.498;-73.582;2023-04-01T19:44:35;11.00;99.90
20005;DHT22;68409;45.498;-73.582;2023-04-01T19:53:11;11.30;99.90
20005;DHT22;68409;45.498;-73.582;2023-04-01T19:55:52;11.40;99.90
20005;DHT22;68409;45.498;-73.582;2023-04-01T19:59:05;11.70;99.90
20005;DHT22;68409;45.498;-73.582;2023-04-01T20:01:52;11.70;99.90
20005;DHT22;68409;45.498;-73.582;2023-04-01T20:04:48;11.90;99.90
20005;DHT22;68409;45.498;-73.582;2023-04-01T20:07:34;12.10;99.90
20005;DHT22;68409;45.498;-73.582;2023-04-01T20:10:13;11.70;99.90
20005;DHT22;68409;45.498;-73.582;2023-04-01T20:12:59;11.80;99.90
20005;DHT22;68409;45.498;-73.582;2023-04-01T20:15:35;11.80;99.90
20005;DHT22;68409;45.498;-73.582;2023-04-01T20:18:25;11.70;99.90
20005;DHT22;68409;45.498;-73.582;2023-04-01T20:21:21;11.80;99.90
20005;DHT22;68409;45.498;-73.582;2023-04-01T20:26:40;12.00;99.90
20005;DHT22;68409;45.498;-73.582;2023-04-01T20:37:48;12.10;99.90
20005;DHT22;68409;45.498;-73.582;2023-04-01T20:40:44;12.30;99.90
20005;DHT22;68409;45.498;-73.582;2023-04-01T20:49:01;12.20;99.90
20005;DHT22;68409;45.498;-73.582;2023-04-01T20:51:46;12.30;99.90
20005;DHT22;68409;45.498;-73.582;2023-04-01T20:57:21;12.10;99.90
20005;DHT22;68409;45.498;-73.582;2023-04-01T21:02:52;12.60;99.90
20005;DHT22;68409;45.498;-73.582;2023-04-01T21:08:34;12.70;99.90
20005;DHT22;68409;45.498;-73.582;2023-04-01T21:13:56;13.20;99.90
20005;DHT22;68409;45.498;-73.582;2023-04-01T21:16:43;13.00;99.90
20005;DHT22;68409;45.498;-73.582;2023-04-01T21:19:25;12.80;99.90
20005;DHT22;68409;45.498;-73.582;2023-04-01T21:25:26;12.60;99.90
20005;DHT22;68409;45.498;-73.582;2023-04-01T21:33:54;12.20;99.90
20005;DHT22;68409;45.498;-73.582;2023-04-01T21:56:49;11.70;99.90
20005;DHT22;68409;45.498;-73.582;2023-04-01T21:59:43;11.70;99.90
20005;DHT22;68409;45.498;-73.582;2023-04-01T22:02:38;11.60;99.90
20005;DHT22;68409;45.498;-73.582;2023-04-01T22:16:20;11.50;99.90
20005;DHT22;68409;45.498;-73.582;2023-04-01T22:21:41;11.50;99.90
20005;DHT22;68409;45.498;-73.582;2023-04-01T22:27:50;11.50;99.90
20005;DHT22;68409;45.498;-73.582;2023-04-01T22:32:57;11.40;99.90
20005;DHT22;68409;45.498;-73.582;2023-04-01T22:35:50;11.20;99.90
20005;DHT22;68409;45.498;-73.582;2023-04-01T22:44:56;11.10;99.90
20005;DHT22;68409;45.498;-73.582;2023-04-01T22:50:23;10.80;99.90
20005;DHT22;68409;45.498;-73.582;2023-04-01T22:53:08;10.80;99.90
20005;DHT22;68409;45.498;-73.582;2023-04-01T22:55:44;10.70;99.90
20005;DHT22;68409;45.498;-73.582;2023-04-01T22:58:25;10.50;99.90
20005;DHT22;68409;45.498;-73.582;2023-04-01T23:00:57;10.50;99.90
20005;DHT22;68409;45.498;-73.582;2023-04-01T23:03:34;10.50;99.90
20005;DHT22;68409;45.498;-73.582;2023-04-01T23:06:03;10.60;99.90
20005;DHT22;68409;45.498;-73.582;2023-04-01T23:11:57;10.70;99.90
20005;DHT22;68409;45.498;-73.582;2023-04-01T23:14:32;10.60;99.90
20005;DHT22;68409;45.498;-73.582;2023-04-01T23:17:07;10.40;99.90
20005;DHT22;68409;45.498;-73.582;2023-04-01T23:33:17;10.00;99.90
20005;DHT22;68409;45.498;-73.582;2023-04-01T23:36:11;10.00;99.90
20005;DHT22;68409;45.498;-73.582;2023-04-01T23:38:40;10.10;99.90
20005;DHT22;68409;45.498;-73.582;2023-04-01T23:41:16;10.10;99.90
20005;DHT22;68409;45.498;-73.582;2023-04-01T23:43:43;9.80;99.90
20005;DHT22;68409;45.498;-73.582;2023-04-01T23:46:12;9.80;99.90
20005;DHT22;68409;45.498;-73.582;2023-04-01T23:48:45;9.70;99.90
20005;DHT22;68409;45.498;-73.582;2023-04-01T23:51:35;9.70;99.90
20005;DHT22;68409;45.498;-73.582;2023-04-01T23:54:27;9.60;99.90
20005;DHT22;68409;45.498;-73.582;2023-04-01T23:56:56;9.40;99.90
20005;DHT22;68409;45.498;-73.582;2023-04-01T23:59:30;9.40;99.90
